createdAt,value
2019-01-10T00:00:40.311Z,3.27
2019-01-10T00:01:40.301Z,3.23
2019-01-10T00:02:40.298Z,3.25
2019-01-10T00:03:40.321Z,3.09
2019-01-10T00:04:40.315Z,3.14
2019-01-10T00:05:40.271Z,3.23
2019-01-10T00:06:40.313Z,3.26
2019-01-10T00:07:40.242Z,3.14
2019-01-10T00:08:40.274Z,3.08
2019-01-10T00:09:40.254Z,3.25
2019-01-10T00:10:40.237Z,3.22
2019-01-10T00:11:40.201Z,3.20
2019-01-10T00:12:40.207Z,3.17
2019-01-10T00:13:40.172Z,3.20
2019-01-10T00:14:40.206Z,3.14
2019-01-10T00:15:40.171Z,3.09
2019-01-10T00:16:40.139Z,3.09
2019-01-10T00:17:40.125Z,3.12
2019-01-10T00:18:40.160Z,3.15
2019-01-10T00:19:40.140Z,3.14
2019-01-10T00:20:40.097Z,3.15
2019-01-10T00:21:40.093Z,3.07
2019-01-10T00:22:40.082Z,3.05
2019-01-10T00:23:40.083Z,3.08
2019-01-10T00:24:40.095Z,3.08
2019-01-10T00:25:40.052Z,3.11
2019-01-10T00:26:40.084Z,3.09
2019-01-10T00:27:40.050Z,3.08
2019-01-10T00:28:40.072Z,3.08
2019-01-10T00:29:40.018Z,3.07
2019-01-10T00:30:40.017Z,3.07
2019-01-10T00:31:39.976Z,3.04
2019-01-10T00:32:40.075Z,3.08
2019-01-10T00:33:39.950Z,2.99
2019-01-10T00:34:39.968Z,3.07
2019-01-10T00:35:39.933Z,3.08
2019-01-10T00:36:39.945Z,3.05
2019-01-10T00:37:39.904Z,3.02
2019-01-10T00:38:39.893Z,3.11
2019-01-10T00:39:39.949Z,3.00
2019-01-10T00:40:39.956Z,2.90
2019-01-10T00:41:39.897Z,2.96
2019-01-10T00:42:48.735Z,3.02
2019-01-10T00:43:40.864Z,3.05
2019-01-10T00:44:39.862Z,3.05
2019-01-10T00:45:39.845Z,3.00
2019-01-10T00:46:39.852Z,3.04
2019-01-10T00:47:39.826Z,2.91
2019-01-10T00:48:39.854Z,2.91
2019-01-10T00:49:39.813Z,2.99
2019-01-10T00:50:39.827Z,2.94
2019-01-10T00:51:39.763Z,2.90
2019-01-10T00:52:39.775Z,2.87
2019-01-10T00:53:39.741Z,2.90
2019-01-10T00:54:39.723Z,2.87
2019-01-10T00:55:39.732Z,2.78
2019-01-10T00:56:39.723Z,2.81
2019-01-10T00:57:39.689Z,2.81
2019-01-10T00:58:39.711Z,2.84
2019-01-10T00:59:39.693Z,2.78
2019-01-10T01:00:39.688Z,2.76
2019-01-10T01:01:39.679Z,2.75
2019-01-10T01:02:39.633Z,2.69
2019-01-10T01:03:39.651Z,2.82
2019-01-10T01:04:39.613Z,2.78
2019-01-10T01:05:39.703Z,2.78
2019-01-10T01:06:39.651Z,2.78
2019-01-10T01:07:39.630Z,2.78
2019-01-10T01:08:39.569Z,2.78
2019-01-10T01:09:39.575Z,2.78
2019-01-10T01:10:39.570Z,2.81
2019-01-10T01:11:39.607Z,2.76
2019-01-10T01:12:39.562Z,2.79
2019-01-10T01:13:39.516Z,2.76
2019-01-10T01:14:39.527Z,2.84
2019-01-10T01:15:39.534Z,2.75
2019-01-10T01:16:39.525Z,2.76
2019-01-10T01:17:39.479Z,2.89
2019-01-10T01:18:39.485Z,2.87
2019-01-10T01:19:39.530Z,2.78
2019-01-10T01:20:39.442Z,2.72
2019-01-10T01:21:39.450Z,2.69
2019-01-10T01:22:39.433Z,2.78
2019-01-10T01:23:39.504Z,2.71
2019-01-10T01:24:39.464Z,2.73
2019-01-10T01:25:39.390Z,2.73
2019-01-10T01:26:39.424Z,2.66
2019-01-10T01:27:39.394Z,2.68
2019-01-10T01:28:39.412Z,2.68
2019-01-10T01:29:39.367Z,2.68
2019-01-10T01:30:39.363Z,2.68
2019-01-10T01:31:39.348Z,2.71
2019-01-10T01:32:39.423Z,2.69
2019-01-10T01:33:39.319Z,2.58
2019-01-10T01:34:39.314Z,2.68
2019-01-10T01:35:39.286Z,2.72
2019-01-10T01:36:39.320Z,2.63
2019-01-10T01:37:39.309Z,2.65
2019-01-10T01:38:39.278Z,2.72
2019-01-10T01:39:39.270Z,2.60
2019-01-10T01:40:39.248Z,2.61
2019-01-10T01:41:39.264Z,2.61
2019-01-10T01:42:39.210Z,2.65
2019-01-10T01:43:39.232Z,2.60
2019-01-10T01:44:39.192Z,2.55
2019-01-10T01:45:39.306Z,2.54
2019-01-10T01:46:39.197Z,2.55
2019-01-10T01:47:39.210Z,2.58
2019-01-10T01:48:39.158Z,2.51
2019-01-10T01:49:39.146Z,2.54
2019-01-10T01:50:39.154Z,2.48
2019-01-10T01:51:39.115Z,2.53
2019-01-10T01:52:39.152Z,2.55
2019-01-10T01:53:39.097Z,2.53
2019-01-10T01:54:39.115Z,2.55
2019-01-10T01:55:39.077Z,2.54
2019-01-10T01:56:39.081Z,2.53
2019-01-10T01:57:39.049Z,2.55
2019-01-10T01:58:39.062Z,2.55
2019-01-10T01:59:39.083Z,2.54
2019-01-10T02:00:39.086Z,2.51
2019-01-10T02:01:39.034Z,2.53
2019-01-10T02:02:38.998Z,2.51
2019-01-10T02:03:39.038Z,2.47
2019-01-10T02:04:38.981Z,2.45
2019-01-10T02:05:39.053Z,2.53
2019-01-10T02:06:38.958Z,2.53
2019-01-10T02:07:38.961Z,2.53
2019-01-10T02:08:39.020Z,2.51
2019-01-10T02:09:39.004Z,2.45
2019-01-10T02:10:38.942Z,2.51
2019-01-10T02:11:38.904Z,2.53
2019-01-10T02:12:38.914Z,2.47
2019-01-10T02:13:39.030Z,2.51
2019-01-10T02:14:38.896Z,2.47
2019-01-10T02:15:38.905Z,2.50
2019-01-10T02:16:38.870Z,2.55
2019-01-10T02:17:38.843Z,2.53
2019-01-10T02:18:38.837Z,2.50
2019-01-10T02:19:38.868Z,2.54
2019-01-10T02:20:38.809Z,2.50
2019-01-10T02:21:38.856Z,2.47
2019-01-10T02:22:38.804Z,2.47
2019-01-10T02:23:38.840Z,2.50
2019-01-10T02:24:38.811Z,2.50
2019-01-10T02:25:38.756Z,2.53
2019-01-10T02:26:38.793Z,2.50
2019-01-10T02:27:38.770Z,2.53
2019-01-10T02:28:38.725Z,2.54
2019-01-10T02:29:38.805Z,2.55
2019-01-10T02:30:42.316Z,2.55
2019-01-10T02:31:38.708Z,2.53
2019-01-10T02:32:38.717Z,2.54
2019-01-10T02:33:38.676Z,2.54
2019-01-10T02:34:38.714Z,2.51
2019-01-10T02:35:38.653Z,2.54
2019-01-10T02:36:38.665Z,2.50
2019-01-10T02:37:38.632Z,2.53
2019-01-10T02:38:38.628Z,2.54
2019-01-10T02:39:38.637Z,2.50
2019-01-10T02:40:38.614Z,2.53
2019-01-10T02:41:38.628Z,2.54
2019-01-10T02:42:38.591Z,2.54
2019-01-10T02:43:38.593Z,2.54
2019-01-10T02:44:38.564Z,2.50
2019-01-10T02:45:38.597Z,2.51
2019-01-10T02:46:38.557Z,2.54
2019-01-10T02:47:38.557Z,2.50
2019-01-10T02:48:38.513Z,2.50
2019-01-10T02:49:38.566Z,2.53
2019-01-10T02:50:38.539Z,2.50
2019-01-10T02:51:38.543Z,2.54
2019-01-10T02:52:38.525Z,2.53
2019-01-10T02:53:38.466Z,2.48
2019-01-10T02:54:38.488Z,2.45
2019-01-10T02:55:38.503Z,2.42
2019-01-10T02:56:38.476Z,2.45
2019-01-10T02:57:38.480Z,2.43
2019-01-10T02:58:38.428Z,2.39
2019-01-10T02:59:38.452Z,2.47
2019-01-10T03:00:38.485Z,2.42
2019-01-10T03:01:38.384Z,2.50
2019-01-10T03:02:38.384Z,2.51
2019-01-10T03:03:38.357Z,2.50
2019-01-10T03:04:38.459Z,2.43
2019-01-10T03:05:38.388Z,2.53
2019-01-10T03:06:38.325Z,2.42
2019-01-10T03:07:38.336Z,2.42
2019-01-10T03:08:38.302Z,2.53
2019-01-10T03:09:38.307Z,2.42
2019-01-10T03:10:38.330Z,2.37
2019-01-10T03:11:38.297Z,2.43
2019-01-10T03:12:38.289Z,2.40
2019-01-10T03:13:38.264Z,2.42
2019-01-10T03:14:38.264Z,2.40
2019-01-10T03:15:38.300Z,2.47
2019-01-10T03:16:38.262Z,2.42
2019-01-10T03:17:38.206Z,2.43
2019-01-10T03:18:38.218Z,2.39
2019-01-10T03:19:38.188Z,2.39
2019-01-10T03:20:38.286Z,2.42
2019-01-10T03:21:38.224Z,2.42
2019-01-10T03:22:38.181Z,2.47
2019-01-10T03:23:38.145Z,2.35
2019-01-10T03:24:38.147Z,2.47
2019-01-10T03:25:38.133Z,2.40
2019-01-10T03:26:38.180Z,2.40
2019-01-10T03:27:38.107Z,2.47
2019-01-10T03:28:38.098Z,2.45
2019-01-10T03:29:38.173Z,2.40
2019-01-10T03:30:38.100Z,2.45
2019-01-10T03:31:38.311Z,2.48
2019-01-10T03:32:39.110Z,2.51
2019-01-10T03:33:38.121Z,2.45
2019-01-10T03:34:38.283Z,2.55
2019-01-10T03:35:38.028Z,2.45
2019-01-10T03:36:38.025Z,2.47
2019-01-10T03:37:37.999Z,2.47
2019-01-10T03:38:38.013Z,2.43
2019-01-10T03:39:37.971Z,2.42
2019-01-10T03:40:37.986Z,2.53
2019-01-10T03:41:38.003Z,2.53
2019-01-10T03:42:37.981Z,2.53
2019-01-10T03:43:46.519Z,2.55
2019-01-10T03:44:38.920Z,2.42
2019-01-10T03:45:37.935Z,2.48
2019-01-10T03:46:37.898Z,2.47
2019-01-10T03:47:38.226Z,2.53
2019-01-10T03:48:37.877Z,2.50
2019-01-10T03:49:37.879Z,2.50
2019-01-10T03:50:38.044Z,2.51
2019-01-10T03:51:37.853Z,2.50
2019-01-10T03:52:37.890Z,2.57
2019-01-10T03:53:37.848Z,2.54
2019-01-10T03:54:37.871Z,2.54
2019-01-10T03:55:37.807Z,2.47
2019-01-10T03:56:37.803Z,2.53
2019-01-10T03:57:37.840Z,2.58
2019-01-10T03:58:37.802Z,2.54
2019-01-10T03:59:37.761Z,2.55
2019-01-10T04:00:37.786Z,2.54
2019-01-10T04:01:37.791Z,2.40
2019-01-10T04:02:37.792Z,2.45
2019-01-10T04:03:37.745Z,2.48
2019-01-10T04:04:37.710Z,2.50
2019-01-10T04:05:37.724Z,2.48
2019-01-10T04:06:39.700Z,2.45
2019-01-10T04:07:37.695Z,2.54
2019-01-10T04:08:37.668Z,2.58
2019-01-10T04:09:37.690Z,2.54
2019-01-10T04:10:37.703Z,2.55
2019-01-10T04:11:37.663Z,2.54
2019-01-10T04:12:37.660Z,2.55
2019-01-10T04:13:37.620Z,2.55
2019-01-10T04:14:37.715Z,2.53
2019-01-10T04:15:37.588Z,2.51
2019-01-10T04:16:37.597Z,2.48
2019-01-10T04:17:37.610Z,2.40
2019-01-10T04:18:37.556Z,2.54
2019-01-10T04:19:37.555Z,2.51
2019-01-10T04:20:37.560Z,2.42
2019-01-10T04:21:37.549Z,2.40
2019-01-10T04:22:37.532Z,2.45
2019-01-10T04:23:37.504Z,2.43
2019-01-10T04:24:37.493Z,2.39
2019-01-10T04:25:37.505Z,2.36
2019-01-10T04:26:37.471Z,2.32
2019-01-10T04:27:37.502Z,2.36
2019-01-10T04:28:37.459Z,2.33
2019-01-10T04:29:37.439Z,2.33
2019-01-10T04:30:37.442Z,2.36
2019-01-10T04:31:37.495Z,2.33
2019-01-10T04:32:37.432Z,2.35
2019-01-10T04:33:37.409Z,2.33
2019-01-10T04:34:37.411Z,2.36
2019-01-10T04:35:37.375Z,2.32
2019-01-10T04:36:37.370Z,2.33
2019-01-10T04:37:37.373Z,2.33
2019-01-10T04:38:37.346Z,2.33
2019-01-10T04:39:37.337Z,2.30
2019-01-10T04:40:37.342Z,2.25
2019-01-10T04:41:37.315Z,2.17
2019-01-10T04:42:37.333Z,2.30
2019-01-10T04:43:37.298Z,2.21
2019-01-10T04:44:37.287Z,2.21
2019-01-10T04:45:37.316Z,2.21
2019-01-10T04:46:37.261Z,2.22
2019-01-10T04:47:37.278Z,2.24
2019-01-10T04:48:37.246Z,2.21
2019-01-10T04:49:37.228Z,2.24
2019-01-10T04:50:37.223Z,2.29
2019-01-10T04:51:37.210Z,2.25
2019-01-10T04:52:37.233Z,2.15
2019-01-10T04:53:37.195Z,2.17
2019-01-10T04:54:38.331Z,2.21
2019-01-10T04:55:37.204Z,2.22
2019-01-10T04:56:37.159Z,2.21
2019-01-10T04:57:37.170Z,2.19
2019-01-10T04:58:37.136Z,2.24
2019-01-10T04:59:37.175Z,2.25
2019-01-10T05:00:37.125Z,2.24
2019-01-10T05:01:37.109Z,2.21
2019-01-10T05:02:37.093Z,2.21
2019-01-10T05:03:37.147Z,2.29
2019-01-10T05:04:37.113Z,2.24
2019-01-10T05:05:37.091Z,2.24
2019-01-10T05:06:37.051Z,2.19
2019-01-10T05:07:37.051Z,2.32
2019-01-10T05:08:37.089Z,2.33
2019-01-10T05:09:37.037Z,2.19
2019-01-10T05:10:37.042Z,2.22
2019-01-10T05:11:37.021Z,2.33
2019-01-10T05:12:36.988Z,2.22
2019-01-10T05:13:37.007Z,2.25
2019-01-10T05:14:36.965Z,2.19
2019-01-10T05:15:36.966Z,2.22
2019-01-10T05:16:37.041Z,2.25
2019-01-10T05:17:36.935Z,2.25
2019-01-10T05:18:36.927Z,2.21
2019-01-10T05:19:36.917Z,2.24
2019-01-10T05:20:36.930Z,2.22
2019-01-10T05:21:36.916Z,2.18
2019-01-10T05:22:36.914Z,2.24
2019-01-10T05:23:36.875Z,2.25
2019-01-10T05:24:36.859Z,2.21
2019-01-10T05:25:36.855Z,2.22
2019-01-10T05:26:36.843Z,2.28
2019-01-10T05:27:36.904Z,2.22
2019-01-10T05:28:36.844Z,2.22
2019-01-10T05:29:36.808Z,2.25
2019-01-10T05:30:36.871Z,2.28
2019-01-10T05:31:36.784Z,2.25
2019-01-10T05:32:36.774Z,2.24
2019-01-10T05:33:36.805Z,2.32
2019-01-10T05:34:36.752Z,2.22
2019-01-10T05:35:36.770Z,2.10
2019-01-10T05:36:36.732Z,2.14
2019-01-10T05:37:36.730Z,2.07
2019-01-10T05:38:36.751Z,2.18
2019-01-10T05:39:36.703Z,2.19
2019-01-10T05:40:36.702Z,2.17
2019-01-10T05:41:36.679Z,2.01
2019-01-10T05:42:36.668Z,2.07
2019-01-10T05:43:36.675Z,2.01
2019-01-10T05:44:36.645Z,2.22
2019-01-10T05:45:36.639Z,2.07
2019-01-10T05:46:36.624Z,2.06
2019-01-10T05:47:36.629Z,2.11
2019-01-10T05:48:36.624Z,2.07
2019-01-10T05:49:36.594Z,2.17
2019-01-10T05:50:36.591Z,2.17
2019-01-10T05:51:36.575Z,2.21
2019-01-10T05:52:36.566Z,2.19
2019-01-10T05:53:36.598Z,2.12
2019-01-10T05:54:36.539Z,2.04
2019-01-10T05:55:36.529Z,2.21
2019-01-10T05:56:36.551Z,2.17
2019-01-10T05:57:36.517Z,2.04
2019-01-10T05:58:36.519Z,2.21
2019-01-10T05:59:36.500Z,2.21
2019-01-10T06:00:36.501Z,2.10
2019-01-10T06:01:36.464Z,2.18
2019-01-10T06:02:36.454Z,2.10
2019-01-10T06:03:36.497Z,2.21
2019-01-10T06:04:36.438Z,2.12
2019-01-10T06:05:36.423Z,2.04
2019-01-10T06:06:36.413Z,2.14
2019-01-10T06:07:36.400Z,1.99
2019-01-10T06:08:36.430Z,2.01
2019-01-10T06:09:36.397Z,2.01
2019-01-10T06:10:36.368Z,1.99
2019-01-10T06:11:36.358Z,1.99
2019-01-10T06:12:36.353Z,2.06
2019-01-10T06:13:36.395Z,1.97
2019-01-10T06:14:36.346Z,2.04
2019-01-10T06:15:36.321Z,2.04
2019-01-10T06:16:36.304Z,2.03
2019-01-10T06:17:36.294Z,2.03
2019-01-10T06:18:36.293Z,2.17
2019-01-10T06:19:36.305Z,2.19
2019-01-10T06:20:36.271Z,1.99
2019-01-10T06:21:36.257Z,2.01
2019-01-10T06:22:36.236Z,2.01
2019-01-10T06:23:36.232Z,2.01
2019-01-10T06:24:36.251Z,2.06
2019-01-10T06:25:36.237Z,2.04
2019-01-10T06:26:36.198Z,2.06
2019-01-10T06:27:36.187Z,2.00
2019-01-10T06:28:36.174Z,1.93
2019-01-10T06:29:36.167Z,2.00
2019-01-10T06:30:36.178Z,2.00
2019-01-10T06:31:36.147Z,1.99
2019-01-10T06:32:36.177Z,2.10
2019-01-10T06:33:36.156Z,1.99
2019-01-10T06:34:36.117Z,2.17
2019-01-10T06:35:36.118Z,2.07
2019-01-10T06:36:36.114Z,1.92
2019-01-10T06:37:36.077Z,1.95
2019-01-10T06:38:36.073Z,2.03
2019-01-10T06:39:36.067Z,1.97
2019-01-10T06:40:36.054Z,2.15
2019-01-10T06:41:36.064Z,2.00
2019-01-10T06:42:36.046Z,2.03
2019-01-10T06:43:36.083Z,2.07
2019-01-10T06:44:44.335Z,2.04
2019-01-10T06:45:37.031Z,2.00
2019-01-10T06:46:36.028Z,2.04
2019-01-10T06:47:36.065Z,1.95
2019-01-10T06:48:36.006Z,2.06
2019-01-10T06:49:35.960Z,1.93
2019-01-10T06:50:35.939Z,2.00
2019-01-10T06:51:36.261Z,2.00
2019-01-10T06:52:35.916Z,1.99
2019-01-10T06:53:35.906Z,2.03
2019-01-10T06:54:35.948Z,1.91
2019-01-10T06:55:35.906Z,2.03
2019-01-10T06:56:35.872Z,2.01
2019-01-10T06:57:35.937Z,2.01
2019-01-10T06:58:35.868Z,2.07
2019-01-10T06:59:35.841Z,1.97
2019-01-10T07:00:35.837Z,2.01
2019-01-10T07:01:35.844Z,2.04
2019-01-10T07:02:35.847Z,2.00
2019-01-10T07:03:35.819Z,2.00
2019-01-10T07:04:35.816Z,1.89
2019-01-10T07:05:35.774Z,2.03
2019-01-10T07:06:37.738Z,2.07
2019-01-10T07:07:35.752Z,1.85
2019-01-10T07:08:35.764Z,2.01
2019-01-10T07:09:35.749Z,1.89
2019-01-10T07:10:35.722Z,1.97
2019-01-10T07:11:35.710Z,2.01
2019-01-10T07:12:35.710Z,1.89
2019-01-10T07:13:35.709Z,1.95
2019-01-10T07:14:35.680Z,1.92
2019-01-10T07:15:35.668Z,2.04
2019-01-10T07:16:35.774Z,2.00
2019-01-10T07:17:35.678Z,2.03
2019-01-10T07:18:35.664Z,2.01
2019-01-10T07:19:35.644Z,1.99
2019-01-10T07:20:35.614Z,2.00
2019-01-10T07:21:35.601Z,2.00
2019-01-10T07:22:35.607Z,2.00
2019-01-10T07:23:35.603Z,1.95
2019-01-10T07:24:35.567Z,1.91
2019-01-10T07:25:35.559Z,1.97
2019-01-10T07:26:35.675Z,1.92
2019-01-10T07:27:35.541Z,2.03
2019-01-10T07:28:35.574Z,1.89
2019-01-10T07:29:35.516Z,1.87
2019-01-10T07:30:36.449Z,1.89
2019-01-10T07:31:35.493Z,1.82
2019-01-10T07:32:35.483Z,1.85
2019-01-10T07:33:35.486Z,1.87
2019-01-10T07:34:35.490Z,1.82
2019-01-10T07:35:35.467Z,1.80
2019-01-10T07:36:35.462Z,1.78
2019-01-10T07:37:35.428Z,1.82
2019-01-10T07:38:35.419Z,1.91
2019-01-10T07:39:35.452Z,1.81
2019-01-10T07:40:36.491Z,1.75
2019-01-10T07:41:35.428Z,1.82
2019-01-10T07:42:35.375Z,1.75
2019-01-10T07:43:35.363Z,1.80
2019-01-10T07:44:35.376Z,1.78
2019-01-10T07:45:35.373Z,1.73
2019-01-10T07:46:35.329Z,1.81
2019-01-10T07:47:35.333Z,1.77
2019-01-10T07:48:35.309Z,1.78
2019-01-10T07:49:35.306Z,1.84
2019-01-10T07:50:35.308Z,1.80
2019-01-10T07:51:35.282Z,1.74
2019-01-10T07:52:35.271Z,1.78
2019-01-10T07:53:35.291Z,1.77
2019-01-10T07:54:35.243Z,1.75
2019-01-10T07:55:35.254Z,1.82
2019-01-10T07:56:35.223Z,1.77
2019-01-10T07:57:35.215Z,1.75
2019-01-10T07:58:35.202Z,1.71
2019-01-10T07:59:35.219Z,1.78
2019-01-10T08:00:35.201Z,1.77
2019-01-10T08:01:35.207Z,1.78
2019-01-10T08:02:35.182Z,1.73
2019-01-10T08:03:35.150Z,1.78
2019-01-10T08:04:35.137Z,1.74
2019-01-10T08:05:35.136Z,1.78
2019-01-10T08:06:35.142Z,1.75
2019-01-10T08:07:35.131Z,1.78
2019-01-10T08:08:35.143Z,1.73
2019-01-10T08:09:35.082Z,1.73
2019-01-10T08:10:35.070Z,1.73
2019-01-10T08:11:35.083Z,1.69
2019-01-10T08:12:35.080Z,1.66
2019-01-10T08:13:35.041Z,1.69
2019-01-10T08:14:35.059Z,1.67
2019-01-10T08:15:35.017Z,1.78
2019-01-10T08:16:35.433Z,1.77
2019-01-10T08:17:35.018Z,1.75
2019-01-10T08:18:35.000Z,1.74
2019-01-10T08:19:35.039Z,1.78
2019-01-10T08:20:34.964Z,1.74
2019-01-10T08:21:34.953Z,1.74
2019-01-10T08:22:34.963Z,1.77
2019-01-10T08:23:34.932Z,1.74
2019-01-10T08:24:34.950Z,1.74
2019-01-10T08:25:34.913Z,1.74
2019-01-10T08:26:44.775Z,1.74
2019-01-10T08:27:34.928Z,1.74
2019-01-10T08:28:34.875Z,1.74
2019-01-10T08:29:34.875Z,1.77
2019-01-10T08:30:34.854Z,1.75
2019-01-10T08:31:42.504Z,1.74
2019-01-10T08:32:43.798Z,1.74
2019-01-10T08:33:34.854Z,1.75
2019-01-10T08:34:34.812Z,1.69
2019-01-10T08:35:34.811Z,1.73
2019-01-10T08:36:34.792Z,1.77
2019-01-10T08:37:34.810Z,1.77
2019-01-10T08:38:34.765Z,1.78
2019-01-10T08:39:34.770Z,1.81
2019-01-10T08:40:34.748Z,1.78
2019-01-10T08:41:34.738Z,1.77
2019-01-10T08:42:34.733Z,1.84
2019-01-10T08:43:34.759Z,1.84
2019-01-10T08:44:34.727Z,1.82
2019-01-10T08:45:34.702Z,1.92
2019-01-10T08:46:34.684Z,1.85
2019-01-10T08:47:34.715Z,1.92
2019-01-10T08:48:34.841Z,1.95
2019-01-10T08:49:36.083Z,1.97
2019-01-10T08:50:34.679Z,1.91
2019-01-10T08:51:34.670Z,1.97
2019-01-10T08:52:34.637Z,1.93
2019-01-10T08:53:34.605Z,1.87
2019-01-10T08:54:34.594Z,1.93
2019-01-10T08:55:34.584Z,1.95
2019-01-10T08:56:34.597Z,1.99
2019-01-10T08:57:34.606Z,1.87
2019-01-10T08:58:34.560Z,2.00
2019-01-10T08:59:34.571Z,1.92
2019-01-10T09:00:34.562Z,1.99
2019-01-10T09:01:34.527Z,2.00
2019-01-10T09:02:36.084Z,1.93
2019-01-10T09:03:34.578Z,1.87
2019-01-10T09:04:34.500Z,1.89
2019-01-10T09:05:34.495Z,1.77
2019-01-10T09:06:34.499Z,1.80
2019-01-10T09:07:34.523Z,1.75
2019-01-10T09:08:34.475Z,1.78
2019-01-10T09:09:34.445Z,1.78
2019-01-10T09:10:34.425Z,1.73
2019-01-10T09:11:34.452Z,1.81
2019-01-10T09:12:34.409Z,1.80
2019-01-10T09:13:34.434Z,1.75
2019-01-10T09:14:34.422Z,1.80
2019-01-10T09:15:34.958Z,1.75
2019-01-10T09:16:34.359Z,1.75
2019-01-10T09:17:34.364Z,1.81
2019-01-10T09:18:34.338Z,1.81
2019-01-10T09:19:34.379Z,1.82
2019-01-10T09:20:34.318Z,1.89
2019-01-10T09:21:34.312Z,1.81
2019-01-10T09:22:34.315Z,1.82
2019-01-10T09:23:34.305Z,1.80
2019-01-10T09:24:34.294Z,1.80
2019-01-10T09:25:34.311Z,1.84
2019-01-10T09:26:37.725Z,1.87
2019-01-10T09:27:34.246Z,1.87
2019-01-10T09:28:34.281Z,1.91
2019-01-10T09:29:34.295Z,1.93
2019-01-10T09:30:34.222Z,1.92
2019-01-10T09:31:34.200Z,2.00
2019-01-10T09:32:34.191Z,2.01
2019-01-10T09:33:34.184Z,2.01
2019-01-10T09:34:34.193Z,2.03
2019-01-10T09:35:34.176Z,1.91
2019-01-10T09:36:34.145Z,1.99
2019-01-10T09:37:34.137Z,2.06
2019-01-10T09:38:34.133Z,2.04
2019-01-10T09:39:34.116Z,2.04
2019-01-10T09:40:34.146Z,2.00
2019-01-10T09:41:34.101Z,1.99
2019-01-10T09:42:34.081Z,2.03
2019-01-10T09:43:34.071Z,2.03
2019-01-10T09:44:34.077Z,2.06
2019-01-10T09:45:42.793Z,2.00
2019-01-10T09:46:35.059Z,2.14
2019-01-10T09:47:34.046Z,2.04
2019-01-10T09:48:34.017Z,2.10
2019-01-10T09:49:34.012Z,2.10
2019-01-10T09:50:34.009Z,2.01
2019-01-10T09:51:33.995Z,1.99
2019-01-10T09:52:34.000Z,1.99
2019-01-10T09:53:33.971Z,2.00
2019-01-10T09:54:33.959Z,2.10
2019-01-10T09:55:33.945Z,2.17
2019-01-10T09:56:33.942Z,2.14
2019-01-10T09:57:33.946Z,2.22
2019-01-10T09:58:33.913Z,2.21
2019-01-10T09:59:33.916Z,2.29
2019-01-10T10:00:33.898Z,2.21
2019-01-10T10:01:33.885Z,2.28
2019-01-10T10:02:33.899Z,2.28
2019-01-10T10:03:33.881Z,2.29
2019-01-10T10:04:33.891Z,2.19
2019-01-10T10:05:33.841Z,2.24
2019-01-10T10:06:33.833Z,2.30
2019-01-10T10:07:33.843Z,2.32
2019-01-10T10:08:33.812Z,2.32
2019-01-10T10:09:33.799Z,2.35
2019-01-10T10:10:33.787Z,2.43
2019-01-10T10:11:34.304Z,2.40
2019-01-10T10:12:33.763Z,2.43
2019-01-10T10:13:33.771Z,2.47
2019-01-10T10:14:33.784Z,2.42
2019-01-10T10:15:33.733Z,2.54
2019-01-10T10:16:33.727Z,2.48
2019-01-10T10:17:33.712Z,2.42
2019-01-10T10:18:33.727Z,2.47
2019-01-10T10:19:33.691Z,2.40
2019-01-10T10:20:33.730Z,2.48
2019-01-10T10:21:33.683Z,2.50
2019-01-10T10:22:33.659Z,2.53
2019-01-10T10:23:33.652Z,2.55
2019-01-10T10:24:33.657Z,2.60
2019-01-10T10:25:33.627Z,2.58
2019-01-10T10:26:33.630Z,2.58
2019-01-10T10:27:33.607Z,2.54
2019-01-10T10:28:33.594Z,2.60
2019-01-10T10:29:33.602Z,2.58
2019-01-10T10:30:33.572Z,2.65
2019-01-10T10:31:33.567Z,2.61
2019-01-10T10:32:33.562Z,2.63
2019-01-10T10:33:33.544Z,2.60
2019-01-10T10:34:33.547Z,2.60
2019-01-10T10:35:33.517Z,2.66
2019-01-10T10:36:33.511Z,2.66
2019-01-10T10:37:33.505Z,2.65
2019-01-10T10:38:33.544Z,2.69
2019-01-10T10:39:33.502Z,2.61
2019-01-10T10:40:33.486Z,2.68
2019-01-10T10:41:33.701Z,2.69
2019-01-10T10:42:33.442Z,2.61
2019-01-10T10:43:33.434Z,2.61
2019-01-10T10:44:33.445Z,2.72
2019-01-10T10:45:33.439Z,2.72
2019-01-10T10:46:33.403Z,2.71
2019-01-10T10:47:33.390Z,2.71
2019-01-10T10:48:33.381Z,2.75
2019-01-10T10:49:33.376Z,2.69
2019-01-10T10:50:33.409Z,2.65
2019-01-10T10:51:33.350Z,2.65
2019-01-10T10:52:33.335Z,2.68
2019-01-10T10:53:33.325Z,2.65
2019-01-10T10:54:33.315Z,2.65
2019-01-10T10:55:33.305Z,2.69
2019-01-10T10:56:33.321Z,2.76
2019-01-10T10:57:33.284Z,2.73
2019-01-10T10:58:33.270Z,2.66
2019-01-10T10:59:33.264Z,2.79
2019-01-10T11:00:33.327Z,2.81
2019-01-10T11:01:33.260Z,2.84
2019-01-10T11:02:33.237Z,2.84
2019-01-10T11:03:42.112Z,2.82
2019-01-10T11:04:33.215Z,2.71
2019-01-10T11:05:33.196Z,2.75
2019-01-10T11:06:33.213Z,2.78
2019-01-10T11:07:33.175Z,2.87
2019-01-10T11:08:33.214Z,2.86
2019-01-10T11:09:33.176Z,2.90
2019-01-10T11:10:33.143Z,2.89
2019-01-10T11:11:33.160Z,2.96
2019-01-10T11:12:33.138Z,2.91
2019-01-10T11:13:33.112Z,2.99
2019-01-10T11:14:33.112Z,3.08
2019-01-10T11:15:33.087Z,3.09
2019-01-10T11:16:33.078Z,3.07
2019-01-10T11:17:33.107Z,3.05
2019-01-10T11:18:33.084Z,3.07
2019-01-10T11:19:33.047Z,3.12
2019-01-10T11:20:33.047Z,3.20
2019-01-10T11:21:33.045Z,3.17
2019-01-10T11:22:33.011Z,3.26
2019-01-10T11:23:33.025Z,3.32
2019-01-10T11:24:32.992Z,3.27
2019-01-10T11:25:42.897Z,3.20
2019-01-10T11:26:32.984Z,3.35
2019-01-10T11:27:32.962Z,3.36
2019-01-10T11:28:33.012Z,3.32
2019-01-10T11:29:32.968Z,3.45
2019-01-10T11:30:32.926Z,3.37
2019-01-10T11:31:32.917Z,3.45
2019-01-10T11:32:32.911Z,3.41
2019-01-10T11:33:32.924Z,3.52
2019-01-10T11:34:32.895Z,3.46
2019-01-10T11:35:32.871Z,3.33
2019-01-10T11:36:32.860Z,3.41
2019-01-10T11:37:32.862Z,3.36
2019-01-10T11:38:32.870Z,3.41
2019-01-10T11:39:32.892Z,3.48
2019-01-10T11:40:32.836Z,3.46
2019-01-10T11:41:32.830Z,3.42
2019-01-10T11:42:32.822Z,3.41
2019-01-10T11:43:32.788Z,3.35
2019-01-10T11:44:32.802Z,3.32
2019-01-10T11:45:32.774Z,3.35
2019-01-10T11:46:32.805Z,3.37
2019-01-10T11:47:32.744Z,3.44
2019-01-10T11:48:32.741Z,3.46
2019-01-10T11:49:32.766Z,3.37
2019-01-10T11:50:32.738Z,3.42
2019-01-10T11:51:32.705Z,3.54
2019-01-10T11:52:32.693Z,3.54
2019-01-10T11:53:35.624Z,3.48
2019-01-10T11:54:32.665Z,3.41
2019-01-10T11:55:32.680Z,3.32
2019-01-10T11:56:32.648Z,3.29
2019-01-10T11:57:32.636Z,3.32
2019-01-10T11:58:32.627Z,3.29
2019-01-10T11:59:32.628Z,3.14
2019-01-10T12:00:32.650Z,3.09
2019-01-10T12:01:32.591Z,3.17
2019-01-10T12:02:36.451Z,3.14
2019-01-10T12:03:32.578Z,3.20
2019-01-10T12:04:32.566Z,3.30
2019-01-10T12:05:32.564Z,3.33
2019-01-10T12:06:32.556Z,3.33
2019-01-10T12:07:32.526Z,3.37
2019-01-10T12:08:32.532Z,3.27
2019-01-10T12:09:32.527Z,3.27
2019-01-10T12:10:32.494Z,3.35
2019-01-10T12:11:32.536Z,3.35
2019-01-10T12:12:32.471Z,3.45
2019-01-10T12:13:32.460Z,3.41
2019-01-10T12:14:32.450Z,3.30
2019-01-10T12:15:32.443Z,3.33
2019-01-10T12:16:32.446Z,3.27
2019-01-10T12:17:32.431Z,3.30
2019-01-10T12:18:32.408Z,3.37
2019-01-10T12:19:32.394Z,3.32
2019-01-10T12:20:32.418Z,3.37
2019-01-10T12:21:32.401Z,3.32
2019-01-10T12:22:32.361Z,3.30
2019-01-10T12:23:32.400Z,3.42
2019-01-10T12:24:32.342Z,3.37
2019-01-10T12:25:32.331Z,3.41
2019-01-10T12:26:32.326Z,3.48
2019-01-10T12:27:32.334Z,3.49
2019-01-10T12:28:32.300Z,3.62
2019-01-10T12:29:36.275Z,3.59
2019-01-10T12:30:32.277Z,3.49
2019-01-10T12:31:32.265Z,3.60
2019-01-10T12:32:32.255Z,3.64
2019-01-10T12:33:32.270Z,3.69
2019-01-10T12:34:32.252Z,3.67
2019-01-10T12:35:32.257Z,3.67
2019-01-10T12:36:32.213Z,3.66
2019-01-10T12:37:32.200Z,3.66
2019-01-10T12:38:32.208Z,3.67
2019-01-10T12:39:32.190Z,3.54
2019-01-10T12:40:32.169Z,3.56
2019-01-10T12:41:32.168Z,3.63
2019-01-10T12:42:32.165Z,3.56
2019-01-10T12:43:32.173Z,3.52
2019-01-10T12:44:32.140Z,3.62
2019-01-10T12:45:32.117Z,3.62
2019-01-10T12:46:37.402Z,3.62
2019-01-10T12:47:33.103Z,3.56
2019-01-10T12:48:32.186Z,3.62
2019-01-10T12:49:32.094Z,3.51
2019-01-10T12:50:32.085Z,3.67
2019-01-10T12:51:32.053Z,3.59
2019-01-10T12:52:35.215Z,3.56
2019-01-10T12:53:32.048Z,3.51
2019-01-10T12:54:32.087Z,3.48
2019-01-10T12:55:32.017Z,3.49
2019-01-10T12:56:31.998Z,3.46
2019-01-10T12:57:31.988Z,3.49
2019-01-10T12:58:31.977Z,3.48
2019-01-10T12:59:31.967Z,3.44
2019-01-10T13:00:31.989Z,3.44
2019-01-10T13:01:32.014Z,3.44
2019-01-10T13:02:31.969Z,3.44
2019-01-10T13:03:31.927Z,3.46
2019-01-10T13:04:33.977Z,3.37
2019-01-10T13:05:31.922Z,3.42
2019-01-10T13:06:31.891Z,3.48
2019-01-10T13:07:31.890Z,3.32
2019-01-10T13:08:31.869Z,3.37
2019-01-10T13:09:31.862Z,3.35
2019-01-10T13:10:31.867Z,3.33
2019-01-10T13:11:31.842Z,3.26
2019-01-10T13:12:31.827Z,3.30
2019-01-10T13:13:31.833Z,3.30
2019-01-10T13:14:31.812Z,3.33
2019-01-10T13:15:31.793Z,3.30
2019-01-10T13:16:31.834Z,3.46
2019-01-10T13:17:31.776Z,3.33
2019-01-10T13:18:31.760Z,3.35